Pagina principală
METAR-TAF:

METAR-TAF

Aeroporturi :

Hope, Columbia Britanică, Canada

Latitudine: 49-22N, longitudine: 121-29W, elevație: 39 m

Observații meteo curente

Raportul a fost făcut în urmă cu 27 de minute, la 19:00 UTC
Vânt 3 kt de la Sud-vest, variabil între Sud/Sud-vest și Nord/Nord-vest
Temperatură 26°C
Umiditate 37%
Presiune 1013 hPa
Vizibilitate: 14.5 km
Cer senin

METAR: CYHE 211900Z AUTO 23003KT 200V340 9SM CLR 26/10 A2990 RMK SLP128 DENSITY ALT 1500FT

Ora: 12:27 (19:27 UTC)


TAF: lipsă

Observații și prognoze meteo pentru peste 4.000 de aeroporturi (rapoarte METAR și TAF).

Stațiile disponibile sunt reprezentate pe hartă prin puncte galbene și roșii.

Țineți indicatorul mouse-ului pe punctul dorit pentru a vedea denumirea stației.

Apoi, faceți clic pentru a vedea observațiile și prognozele meteorologice.

Pentru a schimba harta: Pentru mărire, faceți clic pe butoanele verzi cu cruce neagră; pentru micșorare, pe butonul verde cu o liniuță; pentru hărți învecinate, pe săgețile verzi.


METAR-TAF: